Time;durP1;ratioP1;P1;durP2;ratioP2;P2;SDS_P1;SDS_P2;PMS_P1;PMS_P2;Temp;Humidity;BMP_temperature;BMP_pressure;BME280_temperature;BME280_humidity;BME280_pressure;Samples;Min_cycle;Max_cycle;Signal;HPM_P1;HPM_P2
2023/04/03 00:02:56;;;;;;;2.73;1.70;;;5.40;99.90;;;;;;10382984;28;20233;-65
2023/04/03 00:07:56;;;;;;;3.70;2.30;;;5.40;99.90;;;;;;10414073;28;20294;-65
2023/04/03 00:12:57;;;;;;;2.87;1.80;;;5.30;99.90;;;;;;10386054;28;20248;-64
2023/04/03 00:17:57;;;;;;;2.97;1.87;;;5.30;99.90;;;;;;10379799;28;20216;-64
2023/04/03 00:22:58;;;;;;;2.53;1.80;;;5.20;99.90;;;;;;10387404;28;20231;-64
2023/04/03 00:27:59;;;;;;;3.37;2.13;;;5.10;99.90;;;;;;10383915;28;20293;-64
2023/04/03 00:33:00;;;;;;;5.17;2.40;;;5.10;99.90;;;;;;10382709;28;20217;-64
2023/04/03 00:38:01;;;;;;;3.50;2.20;;;5.00;99.90;;;;;;10380996;28;20225;-65
2023/04/03 00:43:05;;;;;;;2.07;1.73;;;5.00;99.90;;;;;;10386298;28;20317;-64
2023/04/03 00:48:09;;;;;;;2.00;1.47;;;5.00;99.90;;;;;;10392143;28;20224;-66
2023/04/03 00:53:16;;;;;;;3.47;2.00;;;4.90;99.90;;;;;;10390822;28;20376;-65
2023/04/03 00:58:19;;;;;;;5.77;1.93;;;4.90;99.90;;;;;;10394816;28;20928;-65
2023/04/03 01:03:20;;;;;;;4.57;2.10;;;4.90;99.90;;;;;;10385489;28;20225;-67
2023/04/03 01:08:20;;;;;;;2.63;1.77;;;4.90;99.90;;;;;;10394850;28;20622;-67
2023/04/03 01:13:31;;;;;;;3.50;1.70;;;4.90;99.90;;;;;;10390365;28;20283;-68
2023/04/03 01:18:33;;;;;;;4.17;1.70;;;4.90;99.90;;;;;;10396103;28;20264;-66
2023/04/03 01:23:52;;;;;;;2.90;1.83;;;5.00;99.90;;;;;;10412489;28;20213;-67
2023/04/03 01:28:55;;;;;;;2.50;1.63;;;4.90;99.90;;;;;;10393647;28;20225;-67
2023/04/03 01:33:56;;;;;;;3.90;1.90;;;4.90;99.90;;;;;;10384827;28;20263;-67
2023/04/03 01:38:58;;;;;;;2.50;1.77;;;4.90;99.90;;;;;;10392628;28;20243;-68
2023/04/03 01:43:59;;;;;;;3.00;2.07;;;5.00;99.90;;;;;;10391402;28;20247;-66
2023/04/03 01:49:00;;;;;;;3.87;1.90;;;5.00;99.90;;;;;;10391649;28;20898;-66
2023/04/03 01:54:01;;;;;;;3.13;2.20;;;5.10;99.90;;;;;;10420269;28;20226;-66
2023/04/03 01:59:01;;;;;;;2.87;1.90;;;5.10;99.90;;;;;;10385942;28;20221;-67
2023/04/03 02:04:05;;;;;;;4.17;2.27;;;5.10;99.90;;;;;;10421922;28;20267;-68
2023/04/03 02:09:06;;;;;;;4.57;1.80;;;5.10;99.90;;;;;;10390176;28;20221;-69
2023/04/03 02:14:07;;;;;;;4.37;2.33;;;5.10;99.90;;;;;;10390593;28;20688;-67
2023/04/03 02:19:08;;;;;;;1.90;1.70;;;5.10;99.90;;;;;;10383069;28;20226;-68
2023/04/03 02:24:08;;;;;;;3.00;1.93;;;5.10;99.90;;;;;;10390037;28;20229;-66
2023/04/03 02:29:12;;;;;;;5.50;1.90;;;5.00;99.90;;;;;;10419723;28;20240;-67
2023/04/03 02:34:12;;;;;;;4.80;1.90;;;5.00;99.90;;;;;;10413645;28;20224;-67
2023/04/03 02:39:13;;;;;;;3.33;1.70;;;5.00;99.90;;;;;;10387050;28;20238;-68
2023/04/03 02:44:14;;;;;;;3.67;2.40;;;5.00;99.90;;;;;;10391216;28;20233;-67
2023/04/03 02:49:15;;;;;;;3.10;1.80;;;4.90;99.90;;;;;;10385549;28;20238;-68
2023/04/03 02:54:15;;;;;;;6.20;2.30;;;4.90;99.90;;;;;;10382353;28;20225;-68
2023/04/03 02:59:19;;;;;;;5.47;2.30;;;4.80;99.90;;;;;;10419389;28;20278;-66
2023/04/03 03:04:20;;;;;;;5.90;2.43;;;4.80;99.90;;;;;;10378873;28;20702;-66
2023/04/03 03:09:21;;;;;;;3.23;2.10;;;4.80;99.90;;;;;;10385827;28;20239;-67
2023/04/03 03:14:21;;;;;;;3.80;1.93;;;4.70;99.90;;;;;;10390710;28;20227;-67
2023/04/03 03:19:22;;;;;;;4.07;2.03;;;4.70;99.90;;;;;;10416584;28;20226;-66
2023/04/03 03:24:22;;;;;;;6.47;1.90;;;4.60;99.90;;;;;;10422896;28;20217;-67
2023/04/03 03:29:23;;;;;;;3.13;1.90;;;4.50;99.90;;;;;;10388648;28;20232;-66
2023/04/03 03:34:24;;;;;;;4.07;1.87;;;4.50;99.90;;;;;;10384741;28;20875;-68
2023/04/03 03:39:24;;;;;;;3.93;2.07;;;4.50;99.90;;;;;;10413965;28;20224;-67
2023/04/03 03:44:25;;;;;;;4.07;2.07;;;4.40;99.90;;;;;;10388847;28;20305;-67
2023/04/03 03:49:26;;;;;;;4.00;1.90;;;4.40;99.90;;;;;;10383442;28;20233;-68
2023/04/03 03:54:26;;;;;;;2.77;1.93;;;4.40;99.90;;;;;;10419286;28;20307;-67
2023/04/03 03:59:27;;;;;;;3.80;2.00;;;4.50;99.90;;;;;;10378647;28;20229;-67
2023/04/03 04:04:27;;;;;;;3.57;1.97;;;4.50;99.90;;;;;;10389623;28;20710;-70
2023/04/03 04:09:28;;;;;;;4.93;2.40;;;4.60;99.90;;;;;;10396746;28;20231;-75
2023/04/03 04:14:29;;;;;;;4.50;2.13;;;4.60;99.90;;;;;;10375856;28;20231;-72
2023/04/03 04:19:29;;;;;;;2.43;1.80;;;4.60;99.90;;;;;;10383906;28;20232;-71
2023/04/03 04:24:30;;;;;;;2.50;1.73;;;4.70;99.90;;;;;;10391328;28;20224;-72
2023/04/03 04:29:35;;;;;;;7.20;2.00;;;4.70;99.90;;;;;;10390629;28;20282;-71
2023/04/03 04:34:36;;;;;;;3.90;1.80;;;4.80;99.90;;;;;;10373809;28;20668;-71
2023/04/03 04:39:36;;;;;;;3.40;2.30;;;4.80;99.90;;;;;;10387350;28;20267;-70
2023/04/03 04:44:37;;;;;;;3.43;1.73;;;4.80;99.90;;;;;;10371940;28;20646;-69
2023/04/03 04:49:38;;;;;;;4.37;1.70;;;4.80;99.90;;;;;;10396700;28;20231;-67
2023/04/03 04:54:38;;;;;;;6.60;2.00;;;4.80;99.90;;;;;;10390324;28;20221;-68
2023/04/03 04:59:39;;;;;;;4.80;2.50;;;4.80;99.90;;;;;;10396314;28;20244;-69
2023/04/03 05:04:39;;;;;;;4.23;1.90;;;4.70;99.90;;;;;;10417908;28;20217;-67
2023/04/03 05:09:42;;;;;;;8.03;1.90;;;4.80;99.90;;;;;;10386542;28;20244;-71
2023/04/03 05:14:42;;;;;;;4.57;1.80;;;4.70;99.90;;;;;;10426173;28;20217;-71
2023/04/03 05:19:43;;;;;;;5.93;1.67;;;4.80;99.90;;;;;;10396843;28;20590;-73
2023/04/03 05:24:43;;;;;;;5.77;1.67;;;4.70;99.90;;;;;;10396525;28;20673;-74
2023/04/03 05:29:44;;;;;;;2.63;1.47;;;4.70;99.90;;;;;;10385787;28;20279;-72
2023/04/03 05:34:44;;;;;;;5.97;1.87;;;4.70;99.90;;;;;;10385686;28;20669;-72
2023/04/03 05:39:45;;;;;;;4.90;1.90;;;4.80;99.90;;;;;;10385316;28;20231;-73
2023/04/03 05:44:47;;;;;;;4.83;1.70;;;4.80;99.90;;;;;;10382845;28;20283;-72
2023/04/03 05:49:47;;;;;;;6.90;2.13;;;4.80;99.90;;;;;;10383958;28;20296;-74
2023/04/03 05:54:48;;;;;;;4.03;1.77;;;4.90;99.90;;;;;;10382561;28;20280;-73
2023/04/03 05:59:49;;;;;;;5.40;1.80;;;5.10;99.90;;;;;;10386714;28;20226;-72
2023/04/03 06:04:50;;;;;;;4.27;1.73;;;5.20;99.90;;;;;;10419042;28;20224;-74
2023/04/03 06:09:51;;;;;;;6.00;1.70;;;5.30;99.90;;;;;;10376303;28;20844;-73
2023/04/03 06:14:52;;;;;;;4.83;1.70;;;5.70;99.90;;;;;;10387026;28;20217;-73
2023/04/03 06:19:52;;;;;;;4.97;1.80;;;5.80;99.90;;;;;;10380563;28;20308;-74
2023/04/03 06:24:53;;;;;;;4.03;1.43;;;6.50;99.90;;;;;;10411677;28;20252;-74
2023/04/03 06:29:55;;;;;;;3.50;1.50;;;6.40;99.90;;;;;;10372449;28;20692;-74
2023/04/03 06:34:57;;;;;;;5.07;1.97;;;6.40;99.90;;;;;;10387864;28;20213;-74
2023/04/03 06:39:57;;;;;;;4.80;1.90;;;6.40;99.90;;;;;;10381502;28;20247;-74
2023/04/03 06:44:58;;;;;;;5.73;1.80;;;6.50;99.90;;;;;;10379839;28;20255;-73
2023/04/03 06:49:59;;;;;;;4.30;1.80;;;6.80;99.90;;;;;;10411328;28;20224;-73
2023/04/03 06:55:00;;;;;;;7.83;2.20;;;7.00;99.90;;;;;;10388430;28;20239;-73
2023/04/03 07:00:01;;;;;;;4.83;2.03;;;7.00;99.90;;;;;;10385817;28;20299;-74
2023/04/03 07:05:02;;;;;;;6.53;2.83;;;7.00;99.90;;;;;;10387611;28;20221;-74
2023/04/03 07:10:03;;;;;;;10.13;2.37;;;6.90;99.90;;;;;;10384280;28;20230;-73
2023/04/03 07:15:05;;;;;;;3.30;1.87;;;6.70;99.90;;;;;;10383579;28;20244;-72
2023/04/03 07:20:07;;;;;;;3.23;1.90;;;6.60;99.90;;;;;;10414815;28;20236;-71
2023/04/03 07:25:08;;;;;;;7.83;2.23;;;6.60;99.90;;;;;;10389481;28;20790;-71
2023/04/03 07:30:10;;;;;;;5.37;1.80;;;6.40;99.90;;;;;;10387657;28;20258;-74
2023/04/03 07:35:11;;;;;;;5.93;1.90;;;6.50;99.90;;;;;;10380058;28;20231;-69
2023/04/03 07:40:11;;;;;;;4.83;2.10;;;6.40;99.90;;;;;;10408765;28;20204;-70
2023/04/03 07:45:12;;;;;;;3.40;1.60;;;6.40;99.90;;;;;;10385385;28;20251;-70
2023/04/03 07:50:13;;;;;;;6.03;1.70;;;6.70;99.90;;;;;;10384201;28;20224;-70
2023/04/03 07:55:13;;;;;;;8.10;1.87;;;7.10;99.90;;;;;;10385310;28;20707;-70
2023/04/03 08:00:15;;;;;;;5.87;1.90;;;10.00;99.90;;;;;;10380548;28;20201;-70
2023/04/03 08:05:17;;;;;;;5.50;1.53;;;12.60;98.60;;;;;;10384558;28;20196;-71
2023/04/03 08:10:17;;;;;;;4.97;1.70;;;13.40;91.00;;;;;;10380372;28;20219;-69
2023/04/03 08:15:18;;;;;;;4.03;1.70;;;14.00;82.70;;;;;;10379223;28;20238;-70
2023/04/03 08:20:19;;;;;;;5.03;1.80;;;13.90;78.90;;;;;;10384552;28;20287;-72
2023/04/03 08:25:20;;;;;;;5.17;2.20;;;15.00;72.40;;;;;;10381818;28;20189;-70
2023/04/03 08:30:21;;;;;;;3.93;1.80;;;15.50;69.60;;;;;;10371482;28;20323;-68
2023/04/03 08:35:22;;;;;;;5.47;1.90;;;15.90;65.30;;;;;;10407939;28;20593;-70
2023/04/03 08:40:23;;;;;;;3.27;1.70;;;15.30;63.10;;;;;;10382051;28;20198;-69
2023/04/03 08:46:00;;;;;;;5.77;1.67;;;16.20;61.80;;;;;;10372007;28;20194;-70
2023/04/03 08:51:11;;;;;;;5.97;2.03;;;16.60;58.20;;;;;;10371612;28;20309;-69
2023/04/03 08:56:14;;;;;;;2.37;1.60;;;16.20;59.50;;;;;;10391363;28;20226;-70
2023/04/03 09:01:34;;;;;;;5.53;2.03;;;16.30;57.70;;;;;;10380567;28;20221;-70
2023/04/03 09:06:36;;;;;;;3.23;1.60;;;16.80;55.80;;;;;;10372642;28;20809;-70
2023/04/03 09:12:09;;;;;;;5.77;1.93;;;17.30;53.80;;;;;;10388973;28;20228;-71
2023/04/03 09:17:39;;;;;;;3.20;1.73;;;17.80;51.80;;;;;;10385399;28;20240;-73
2023/04/03 09:22:43;;;;;;;3.80;1.77;;;15.90;55.00;;;;;;10380279;28;20785;-71
2023/04/03 09:27:45;;;;;;;4.23;1.67;;;13.70;59.90;;;;;;10383407;28;20220;-69
2023/04/03 09:32:54;;;;;;;7.47;1.80;;;11.70;66.20;;;;;;10366802;28;20323;-70
2023/04/03 09:37:59;;;;;;;4.43;1.70;;;12.00;69.10;;;;;;10381393;28;20221;-71
2023/04/03 09:43:08;;;;;;;4.70;1.90;;;12.30;66.20;;;;;;10376250;28;20287;-69
2023/04/03 09:48:23;;;;;;;4.37;1.93;;;11.00;66.70;;;;;;10394517;28;20250;-69
2023/04/03 09:53:30;;;;;;;6.07;2.17;;;11.20;69.10;;;;;;10387687;28;20221;-70
2023/04/03 09:58:36;;;;;;;4.83;1.63;;;13.30;60.00;;;;;;10390350;28;20283;-70
2023/04/03 10:03:39;;;;;;;4.73;1.93;;;11.90;64.20;;;;;;10412007;28;20249;-69
2023/04/03 10:08:40;;;;;;;3.80;1.80;;;11.30;67.70;;;;;;10395975;28;20224;-69
2023/04/03 10:13:59;;;;;;;2.50;1.20;;;10.60;69.30;;;;;;10395305;28;20274;-70
2023/04/03 10:19:06;;;;;;;4.50;1.77;;;11.90;68.30;;;;;;10381984;28;20335;-70
2023/04/03 10:24:26;;;;;;;2.83;1.50;;;14.90;58.80;;;;;;10384539;28;20269;-71
2023/04/03 10:29:42;;;;;;;4.23;1.30;;;16.20;55.20;;;;;;10387899;28;20679;-72
2023/04/03 10:34:44;;;;;;;2.07;1.50;;;14.40;55.50;;;;;;10374382;28;20772;-69
2023/04/03 10:39:54;;;;;;;3.30;1.87;;;12.60;60.40;;;;;;10385138;28;20225;-70
2023/04/03 10:45:16;;;;;;;3.23;1.43;;;12.20;61.90;;;;;;10388079;28;20216;-70
2023/04/03 10:50:57;;;;;;;4.13;1.60;;;11.90;61.00;;;;;;10402949;28;20270;-69
2023/04/03 10:56:26;;;;;;;5.40;1.50;;;11.90;61.60;;;;;;10384536;28;20565;-70
2023/04/03 11:01:40;;;;;;;3.93;1.60;;;12.30;62.20;;;;;;10391553;28;20328;-69
2023/04/03 11:06:53;;;;;;;3.97;1.43;;;11.70;64.60;;;;;;10391461;28;20718;-68
2023/04/03 11:12:02;;;;;;;3.23;1.53;;;10.80;66.40;;;;;;10415915;28;20252;-69
2023/04/03 11:17:06;;;;;;;5.33;1.50;;;12.00;67.10;;;;;;10372759;28;20564;-69
2023/04/03 11:22:30;;;;;;;5.60;2.07;;;12.10;61.20;;;;;;10388866;28;20688;-69
2023/04/03 11:27:47;;;;;;;4.93;2.20;;;10.90;65.60;;;;;;10387418;28;20289;-70
2023/04/03 11:33:11;;;;;;;1.73;1.20;;;11.10;67.70;;;;;;10419929;28;20224;-71
2023/04/03 11:38:21;;;;;;;4.63;1.63;;;12.10;63.40;;;;;;10385081;28;20224;-71
2023/04/03 11:43:26;;;;;;;4.67;1.67;;;11.30;63.80;;;;;;10384089;28;20236;-72
2023/04/03 11:48:31;;;;;;;2.33;1.13;;;11.00;66.50;;;;;;10385755;28;20227;-71
2023/04/03 11:53:39;;;;;;;2.43;1.37;;;10.50;66.10;;;;;;10422636;28;20228;-71
2023/04/03 11:58:39;;;;;;;3.50;1.50;;;10.50;67.40;;;;;;10406804;28;20599;-70
2023/04/03 12:03:40;;;;;;;2.90;1.60;;;10.70;64.70;;;;;;10413700;28;20232;-71
2023/04/03 12:08:41;;;;;;;3.63;1.70;;;10.60;65.20;;;;;;10414850;28;20224;-71
2023/04/03 12:13:57;;;;;;;2.50;1.50;;;10.60;65.30;;;;;;10416077;28;20213;-72
2023/04/03 12:19:15;;;;;;;2.83;1.40;;;10.50;63.80;;;;;;10418565;28;20236;-70
2023/04/03 12:24:16;;;;;;;4.00;1.70;;;10.80;62.00;;;;;;10386197;28;20217;-72
2023/04/03 12:29:32;;;;;;;3.77;1.67;;;10.40;61.10;;;;;;10414326;28;20615;-70
2023/04/03 12:35:09;;;;;;;1.83;1.30;;;10.60;58.60;;;;;;10415557;28;20219;-71
2023/04/03 12:40:27;;;;;;;2.37;1.10;;;10.40;55.90;;;;;;10385892;28;20239;-72
2023/04/03 12:45:28;;;;;;;1.90;1.20;;;10.00;56.40;;;;;;10382662;28;20225;-69
2023/04/03 12:50:32;;;;;;;2.03;0.97;;;9.90;55.80;;;;;;10388611;28;20221;-70
2023/04/03 12:55:33;;;;;;;1.47;1.13;;;9.80;56.00;;;;;;10390437;28;20271;-68
2023/04/03 13:00:35;;;;;;;2.30;1.50;;;9.80;56.60;;;;;;10381934;28;20225;-68
2023/04/03 13:05:36;;;;;;;1.97;1.30;;;10.00;55.80;;;;;;10382484;28;20220;-68
2023/04/03 13:10:53;;;;;;;1.43;1.13;;;9.90;55.00;;;;;;10398555;28;20251;-68
2023/04/03 13:15:54;;;;;;;2.00;1.00;;;9.50;54.40;;;;;;10387830;28;20245;-67
2023/04/03 13:21:16;;;;;;;1.57;1.00;;;9.30;53.10;;;;;;10420064;28;20293;-69
2023/04/03 13:26:20;;;;;;;4.37;1.40;;;9.40;54.00;;;;;;10392471;28;20220;-68
2023/04/03 13:31:27;;;;;;;3.00;1.23;;;9.50;56.00;;;;;;10387751;28;20227;-68
2023/04/03 13:36:32;;;;;;;2.43;1.20;;;9.70;56.80;;;;;;10392220;28;20285;-68
2023/04/03 13:41:36;;;;;;;2.03;1.00;;;9.80;58.00;;;;;;10387029;28;20293;-68
2023/04/03 13:46:37;;;;;;;2.40;1.40;;;10.20;58.90;;;;;;10378463;28;20245;-68
2023/04/03 13:51:38;;;;;;;2.67;1.20;;;10.00;57.50;;;;;;10418600;28;20292;-69
2023/04/03 13:56:43;;;;;;;2.73;1.47;;;10.00;58.20;;;;;;10394800;28;20267;-69
2023/04/03 14:01:50;;;;;;;3.80;1.47;;;10.20;58.80;;;;;;10391519;28;20224;-68
2023/04/03 14:06:52;;;;;;;2.23;1.10;;;9.80;58.80;;;;;;10392545;28;20753;-69
2023/04/03 14:12:00;;;;;;;4.07;1.67;;;10.20;59.40;;;;;;10386307;28;20224;-69
2023/04/03 14:17:03;;;;;;;3.90;1.67;;;10.10;58.90;;;;;;10391092;28;20229;-67
2023/04/03 14:22:17;;;;;;;1.93;1.50;;;9.90;60.10;;;;;;10385693;28;20225;-67
2023/04/03 14:27:21;;;;;;;3.40;1.73;;;10.10;60.60;;;;;;10387802;28;20236;-69
2023/04/03 14:32:23;;;;;;;5.07;1.87;;;10.10;59.40;;;;;;10382315;28;20330;-68
2023/04/03 14:37:27;;;;;;;2.97;1.97;;;9.90;60.80;;;;;;10393070;28;20217;-68
2023/04/03 14:42:31;;;;;;;6.40;1.67;;;9.80;61.00;;;;;;10377177;28;20333;-68
2023/04/03 14:47:32;;;;;;;5.93;1.70;;;9.80;62.20;;;;;;10388208;28;20217;-69
2023/04/03 14:52:35;;;;;;;2.83;1.20;;;9.70;59.90;;;;;;10383523;28;20224;-69
2023/04/03 14:57:37;;;;;;;6.80;2.10;;;9.70;59.90;;;;;;10375906;28;20219;-75
2023/04/03 15:02:38;;;;;;;5.50;1.87;;;10.00;61.10;;;;;;10390960;28;20799;-70
2023/04/03 15:07:42;;;;;;;6.03;2.20;;;10.10;60.10;;;;;;10383103;28;20228;-70
2023/04/03 15:12:44;;;;;;;4.30;2.10;;;10.00;60.30;;;;;;10369879;28;20329;-70
2023/04/03 15:17:47;;;;;;;6.30;2.60;;;9.70;61.80;;;;;;10390182;28;20235;-70
2023/04/03 15:22:48;;;;;;;4.03;1.90;;;9.70;62.00;;;;;;10383148;28;20625;-69
2023/04/03 15:27:49;;;;;;;4.40;1.67;;;9.70;62.70;;;;;;10413711;28;20230;-70
2023/04/03 15:32:50;;;;;;;5.23;1.90;;;10.00;61.40;;;;;;10377722;28;20221;-70
2023/04/03 15:37:51;;;;;;;3.20;1.67;;;10.20;60.00;;;;;;10392704;28;20220;-70
2023/04/03 15:42:52;;;;;;;3.77;2.00;;;9.60;60.90;;;;;;10390558;28;20384;-70
2023/04/03 15:47:52;;;;;;;3.63;1.93;;;9.40;62.60;;;;;;10383370;28;20231;-69
2023/04/03 15:52:57;;;;;;;2.37;1.57;;;9.30;62.30;;;;;;10381617;28;20715;-69
2023/04/03 15:57:58;;;;;;;2.70;1.50;;;9.20;63.70;;;;;;10418184;28;20340;-71
2023/04/03 16:03:04;;;;;;;3.23;1.57;;;9.20;63.50;;;;;;10418129;28;20610;-70
2023/04/03 16:08:07;;;;;;;2.80;1.40;;;9.20;63.90;;;;;;10387954;28;20223;-69
2023/04/03 16:13:08;;;;;;;3.73;1.83;;;9.10;64.70;;;;;;10382418;28;20225;-70
2023/04/03 16:18:09;;;;;;;3.77;1.60;;;9.00;67.00;;;;;;10386654;28;20228;-69
2023/04/03 16:23:11;;;;;;;4.90;2.37;;;8.90;65.40;;;;;;10391072;28;20240;-70
2023/04/03 16:28:17;;;;;;;2.90;1.30;;;8.90;65.60;;;;;;10389499;28;20219;-71
2023/04/03 16:33:21;;;;;;;2.20;1.30;;;8.90;66.20;;;;;;10390981;28;20314;-69
2023/04/03 16:38:22;;;;;;;1.40;1.10;;;8.70;65.70;;;;;;10392805;28;20223;-70
2023/04/03 16:43:22;;;;;;;3.37;1.30;;;8.60;66.80;;;;;;10393881;28;20575;-70
2023/04/03 16:48:23;;;;;;;2.37;1.10;;;8.50;67.00;;;;;;10398043;28;20238;-70
2023/04/03 16:53:25;;;;;;;3.90;1.20;;;8.40;67.20;;;;;;10390407;28;20227;-70
2023/04/03 16:58:25;;;;;;;3.43;1.20;;;8.30;67.20;;;;;;10394637;28;20225;-72
2023/04/03 17:03:27;;;;;;;3.90;1.33;;;8.20;66.90;;;;;;10382497;28;20638;-70
2023/04/03 17:08:28;;;;;;;3.03;1.00;;;8.10;68.00;;;;;;10396114;28;20945;-71
2023/04/03 17:13:31;;;;;;;2.63;1.23;;;8.00;68.40;;;;;;10390269;28;20213;-71
2023/04/03 17:18:33;;;;;;;2.20;1.03;;;7.90;68.50;;;;;;10396151;28;20785;-69
2023/04/03 17:23:36;;;;;;;4.47;1.50;;;7.80;69.60;;;;;;10395713;28;20226;-72
2023/04/03 17:28:38;;;;;;;4.00;1.43;;;7.70;70.00;;;;;;10398749;28;20221;-71
2023/04/03 17:33:38;;;;;;;3.20;1.60;;;7.60;70.40;;;;;;10388629;28;20215;-72
2023/04/03 17:38:40;;;;;;;5.20;1.33;;;7.50;70.90;;;;;;10396445;28;20224;-71
2023/04/03 17:43:40;;;;;;;1.67;1.10;;;7.40;71.20;;;;;;10394648;28;20244;-72
2023/04/03 17:48:41;;;;;;;2.67;1.07;;;7.40;73.00;;;;;;10398268;28;20225;-71
2023/04/03 17:53:43;;;;;;;3.97;1.37;;;7.20;71.30;;;;;;10392191;28;20215;-73
2023/04/03 17:58:44;;;;;;;2.33;1.30;;;7.10;70.30;;;;;;10425534;28;20872;-70
2023/04/03 18:03:46;;;;;;;2.13;1.57;;;7.10;71.40;;;;;;10395688;28;20226;-72
2023/04/03 18:08:50;;;;;;;4.60;1.30;;;6.90;71.70;;;;;;10398217;28;20213;-71
2023/04/03 18:13:51;;;;;;;2.00;1.50;;;6.80;72.10;;;;;;10395596;28;20689;-69
2023/04/03 18:18:52;;;;;;;2.33;1.20;;;6.70;73.20;;;;;;10396116;28;20251;-72
2023/04/03 18:23:54;;;;;;;2.63;1.40;;;6.60;73.20;;;;;;10381184;28;20320;-71
2023/04/03 18:28:58;;;;;;;3.87;1.30;;;6.50;73.60;;;;;;10391721;28;20223;-71
2023/04/03 18:34:00;;;;;;;4.03;1.30;;;6.50;74.20;;;;;;10421403;28;20225;-71
2023/04/03 18:39:00;;;;;;;4.93;1.30;;;6.40;74.40;;;;;;10382837;28;20222;-70
2023/04/03 18:44:04;;;;;;;2.33;1.23;;;6.30;74.40;;;;;;10422251;28;20225;-71
2023/04/03 18:49:04;;;;;;;4.77;1.17;;;6.20;75.00;;;;;;10385959;28;20583;-72
2023/04/03 18:54:08;;;;;;;2.20;1.37;;;6.10;75.30;;;;;;10416921;28;20225;-71
2023/04/03 18:59:10;;;;;;;2.53;1.00;;;6.00;75.70;;;;;;10385776;28;20217;-72
2023/04/03 19:05:06;;;;;;;1.63;1.07;;;5.90;76.30;;;;;;10389691;28;20270;-71
2023/04/03 19:10:08;;;;;;;2.53;1.00;;;5.90;77.00;;;;;;10385144;28;20532;-70
2023/04/03 19:15:09;;;;;;;4.53;1.70;;;5.80;77.20;;;;;;10419980;28;20201;-71
2023/04/03 19:20:11;;;;;;;1.97;1.30;;;5.70;77.70;;;;;;10388804;28;20217;-72
2023/04/03 19:25:11;;;;;;;2.83;1.40;;;5.60;78.50;;;;;;10416293;28;20250;-70
2023/04/03 19:30:13;;;;;;;3.80;1.57;;;5.50;78.60;;;;;;10387600;28;20665;-70
2023/04/03 19:35:14;;;;;;;3.73;1.30;;;5.50;78.90;;;;;;10389045;28;20203;-71
2023/04/03 19:40:15;;;;;;;5.40;1.33;;;5.40;78.80;;;;;;10386980;28;20571;-72
2023/04/03 19:45:16;;;;;;;4.07;1.67;;;5.40;79.40;;;;;;10384156;28;20218;-72
2023/04/03 19:50:17;;;;;;;3.73;1.60;;;5.30;79.60;;;;;;10387476;28;20192;-70
2023/04/03 19:55:18;;;;;;;3.93;1.33;;;5.20;79.80;;;;;;10415644;28;20280;-70
2023/04/03 20:00:19;;;;;;;3.70;1.57;;;5.20;80.50;;;;;;10389954;28;20204;-72
2023/04/03 20:05:20;;;;;;;3.27;1.40;;;5.10;81.00;;;;;;10417255;28;20648;-71
2023/04/03 20:10:21;;;;;;;6.43;1.17;;;5.00;81.70;;;;;;10390044;28;20186;-71
2023/04/03 20:15:21;;;;;;;3.97;1.60;;;5.00;81.90;;;;;;10385207;28;20193;-71
2023/04/03 20:20:26;;;;;;;2.03;1.23;;;4.90;82.10;;;;;;10385634;28;20263;-71
2023/04/03 20:25:26;;;;;;;3.53;1.40;;;4.90;82.60;;;;;;10388933;28;20585;-71
2023/04/03 20:30:27;;;;;;;4.50;1.47;;;4.90;82.90;;;;;;10383272;28;20224;-70
2023/04/03 20:35:28;;;;;;;3.53;1.20;;;4.80;84.10;;;;;;10381770;28;20209;-71
2023/04/03 20:40:28;;;;;;;3.70;1.20;;;4.70;84.60;;;;;;10383384;28;20731;-71
2023/04/03 20:45:30;;;;;;;3.83;1.53;;;4.60;85.40;;;;;;10382491;28;20263;-73
2023/04/03 20:50:32;;;;;;;4.87;1.63;;;4.50;86.20;;;;;;10380632;28;20231;-72
2023/04/03 20:55:33;;;;;;;3.33;1.60;;;4.40;86.00;;;;;;10381449;28;20226;-71
2023/04/03 21:00:36;;;;;;;4.50;1.80;;;4.40;86.40;;;;;;10382585;28;20632;-73
2023/04/03 21:05:37;;;;;;;2.50;1.50;;;4.30;86.50;;;;;;10381409;28;20220;-74
2023/04/03 21:11:14;;;;;;;3.30;1.60;;;4.20;86.90;;;;;;10397382;28;20595;-73
2023/04/03 21:16:15;;;;;;;4.90;1.50;;;4.20;87.40;;;;;;10394801;28;20274;-70
2023/04/03 21:21:21;;;;;;;4.63;1.60;;;4.10;87.90;;;;;;10397325;28;20817;-68
2023/04/03 21:26:25;;;;;;;4.77;1.73;;;4.10;88.20;;;;;;10390702;28;20230;-73
2023/04/03 21:31:53;;;;;;;5.03;1.50;;;4.10;86.10;;;;;;10395999;28;20217;-72
2023/04/03 21:37:05;;;;;;;3.23;1.90;;;3.90;86.90;;;;;;10385470;28;20790;-72
2023/04/03 21:42:06;;;;;;;2.77;1.50;;;3.90;87.20;;;;;;10392697;28;20253;-72
2023/04/03 21:47:06;;;;;;;4.43;1.77;;;3.80;87.40;;;;;;10420206;28;20218;-72
2023/04/03 21:52:07;;;;;;;2.60;1.50;;;3.80;88.00;;;;;;10424349;28;20231;-72
2023/04/03 21:57:14;;;;;;;4.80;1.53;;;3.70;88.00;;;;;;10391790;28;20221;-71
2023/04/03 22:02:14;;;;;;;4.23;1.50;;;3.70;88.10;;;;;;10393368;28;20232;-74
2023/04/03 22:07:15;;;;;;;3.90;1.80;;;3.70;88.40;;;;;;10390557;28;20224;-73
2023/04/03 22:12:15;;;;;;;6.93;1.80;;;3.60;88.80;;;;;;10400807;28;20281;-74
2023/04/03 22:17:16;;;;;;;3.47;1.37;;;3.50;88.90;;;;;;10385449;28;20796;-73
2023/04/03 22:22:17;;;;;;;4.47;1.50;;;3.40;89.30;;;;;;10386595;28;21016;-73
2023/04/03 22:27:18;;;;;;;2.87;1.27;;;3.40;89.50;;;;;;10388333;28;20323;-71
2023/04/03 22:32:18;;;;;;;3.00;1.50;;;3.30;89.40;;;;;;10387110;28;20225;-73
2023/04/03 22:37:19;;;;;;;4.53;1.70;;;3.30;89.80;;;;;;10425832;28;20221;-72
2023/04/03 22:42:20;;;;;;;6.03;1.70;;;3.20;89.80;;;;;;10424032;28;20220;-72
2023/04/03 22:47:20;;;;;;;3.47;1.53;;;3.20;90.10;;;;;;10385333;28;20620;-71
2023/04/03 22:52:21;;;;;;;3.73;1.57;;;3.10;90.30;;;;;;10391485;28;20776;-72
2023/04/03 22:57:25;;;;;;;3.50;1.60;;;3.00;90.30;;;;;;10385851;28;20217;-74
2023/04/03 23:02:26;;;;;;;3.97;1.93;;;3.00;90.50;;;;;;10393430;28;20259;-73
2023/04/03 23:07:28;;;;;;;4.10;1.53;;;3.00;90.50;;;;;;10391726;28;20216;-74
2023/04/03 23:12:28;;;;;;;3.30;1.50;;;2.90;90.60;;;;;;10391675;28;20232;-74
2023/04/03 23:17:29;;;;;;;4.07;2.00;;;2.80;90.80;;;;;;10386260;28;20851;-73
2023/04/03 23:22:29;;;;;;;11.33;3.17;;;2.80;90.90;;;;;;10417177;28;20229;-73
2023/04/03 23:27:30;;;;;;;7.27;2.83;;;2.80;91.20;;;;;;10423065;28;20276;-72
2023/04/03 23:32:31;;;;;;;6.27;2.00;;;2.80;91.30;;;;;;10417077;28;20228;-73
2023/04/03 23:37:31;;;;;;;4.90;1.63;;;2.70;91.30;;;;;;10392315;28;20575;-74
2023/04/03 23:42:32;;;;;;;8.47;1.73;;;2.60;91.40;;;;;;10384955;28;20581;-75
2023/04/03 23:47:33;;;;;;;3.87;1.67;;;2.60;91.30;;;;;;10391317;28;20322;-75
2023/04/03 23:52:33;;;;;;;2.37;1.40;;;2.50;91.40;;;;;;10384360;28;20244;-74
2023/04/03 23:57:34;;;;;;;6.27;1.73;;;2.50;91.70;;;;;;10391759;28;20228;-73
